createdAt,value
2022-10-17T00:01:57.711Z,56.10
2022-10-17T00:04:24.324Z,56.10
2022-10-17T00:06:51.031Z,56.10
2022-10-17T00:09:17.588Z,56.20
2022-10-17T00:11:44.163Z,56.20
2022-10-17T00:14:10.775Z,56.20
2022-10-17T00:16:37.505Z,56.30
2022-10-17T00:19:05.467Z,56.20
2022-10-17T00:21:32.011Z,56.20
2022-10-17T00:23:59.214Z,56.30
2022-10-17T00:26:25.811Z,56.30
2022-10-17T00:28:52.665Z,56.40
2022-10-17T00:31:20.108Z,56.40
2022-10-17T00:33:46.924Z,56.30
2022-10-17T00:36:18.492Z,56.30
2022-10-17T00:38:45.870Z,56.30
2022-10-17T00:41:14.555Z,56.20
2022-10-17T00:43:51.117Z,56.20
2022-10-17T00:46:17.752Z,56.20
2022-10-17T00:48:44.309Z,56.30
2022-10-17T00:51:10.933Z,56.20
2022-10-17T00:53:37.723Z,56.20
2022-10-17T00:56:04.463Z,56.20
2022-10-17T00:58:31.018Z,56.30
2022-10-17T01:00:57.565Z,57.00
2022-10-17T01:03:24.126Z,56.30
2022-10-17T01:05:50.659Z,56.30
2022-10-17T01:08:17.207Z,56.30
2022-10-17T01:10:43.670Z,56.30
2022-10-17T01:13:24.163Z,56.30
2022-10-17T01:15:55.516Z,56.20
2022-10-17T01:18:28.809Z,56.10
2022-10-17T01:21:29.431Z,56.10
2022-10-17T01:24:10.392Z,56.10
2022-10-17T01:27:02.113Z,56.00
2022-10-17T01:29:44.205Z,56.10
2022-10-17T01:32:38.586Z,56.10
2022-10-17T01:35:18.365Z,56.10
2022-10-17T01:38:03.813Z,56.10
2022-10-17T01:40:39.449Z,56.00
2022-10-17T01:43:14.144Z,56.00
2022-10-17T01:45:50.021Z,56.00
2022-10-17T01:48:20.058Z,56.10
2022-10-17T01:50:54.894Z,56.20
2022-10-17T01:53:30.308Z,56.20
2022-10-17T01:58:51.065Z,56.20
2022-10-17T02:01:17.689Z,56.20
2022-10-17T02:03:44.272Z,56.10
2022-10-17T02:06:10.815Z,56.20
2022-10-17T02:08:42.211Z,56.20
2022-10-17T02:11:22.888Z,56.10
2022-10-17T02:13:49.377Z,56.10
2022-10-17T02:16:52.220Z,55.90
2022-10-17T02:19:34.378Z,56.00
2022-10-17T02:22:17.632Z,56.00
2022-10-17T02:24:57.155Z,56.00
2022-10-17T02:27:47.915Z,56.00
2022-10-17T02:30:25.742Z,56.10
2022-10-17T02:32:58.377Z,56.00
2022-10-17T02:35:26.941Z,55.90
2022-10-17T02:37:53.495Z,56.00
2022-10-17T02:40:21.173Z,56.00
2022-10-17T02:42:47.725Z,56.00
2022-10-17T02:45:14.332Z,55.90
2022-10-17T02:48:03.507Z,55.90
2022-10-17T02:51:06.989Z,55.90
2022-10-17T02:53:47.704Z,56.00
2022-10-17T02:56:16.945Z,56.10
2022-10-17T02:58:43.535Z,56.10
2022-10-17T03:01:10.134Z,56.10
2022-10-17T03:03:36.745Z,56.10
2022-10-17T03:06:03.291Z,56.20
2022-10-17T03:08:29.927Z,56.20
2022-10-17T03:10:56.572Z,56.20
2022-10-17T03:13:23.146Z,56.20
2022-10-17T03:15:49.716Z,56.20
2022-10-17T03:18:16.249Z,56.20
2022-10-17T03:20:42.792Z,56.30
2022-10-17T03:23:09.320Z,56.20
2022-10-17T03:25:35.861Z,56.20
2022-10-17T03:28:02.450Z,56.30
2022-10-17T03:30:29.110Z,56.40
2022-10-17T03:32:57.133Z,56.40
2022-10-17T03:35:23.693Z,56.30
2022-10-17T03:37:50.248Z,56.40
2022-10-17T03:40:16.901Z,57.00
2022-10-17T03:42:43.537Z,56.40
2022-10-17T03:45:10.220Z,56.40
2022-10-17T03:47:36.755Z,56.40
2022-10-17T03:50:03.678Z,56.50
2022-10-17T03:52:30.218Z,56.40
2022-10-17T03:54:56.769Z,56.40
2022-10-17T03:57:23.306Z,56.40
2022-10-17T03:59:51.364Z,56.30
2022-10-17T04:02:17.940Z,56.30
2022-10-17T04:04:44.489Z,56.30
2022-10-17T04:07:11.037Z,56.30
2022-10-17T04:09:37.597Z,56.30
2022-10-17T04:12:04.247Z,56.30
2022-10-17T04:14:30.807Z,56.30
2022-10-17T04:16:58.560Z,56.30
2022-10-17T04:19:25.884Z,56.30
2022-10-17T04:21:52.433Z,56.30
2022-10-17T04:24:18.989Z,56.30
2022-10-17T04:26:45.617Z,56.30
2022-10-17T04:29:12.207Z,56.30
2022-10-17T04:31:38.764Z,56.40
2022-10-17T04:34:05.460Z,56.40
2022-10-17T04:36:32.004Z,56.40
2022-10-17T04:38:59.918Z,56.50
2022-10-17T04:41:26.524Z,57.10
2022-10-17T04:43:53.094Z,56.40
2022-10-17T04:46:19.649Z,56.40
2022-10-17T04:48:46.250Z,56.40
2022-10-17T04:51:18.741Z,56.30
2022-10-17T04:53:47.305Z,56.20
2022-10-17T04:56:18.866Z,56.30
2022-10-17T04:58:45.717Z,56.20
2022-10-17T05:01:16.945Z,56.10
2022-10-17T05:03:43.715Z,56.20
2022-10-17T05:06:14.639Z,56.20
2022-10-17T05:08:41.245Z,56.20
2022-10-17T05:11:16.085Z,56.20
2022-10-17T05:13:42.646Z,56.20
2022-10-17T05:16:09.213Z,56.20
2022-10-17T05:18:35.768Z,56.30
2022-10-17T05:21:03.868Z,56.30
2022-10-17T05:23:30.771Z,56.30
2022-10-17T05:25:57.399Z,56.20
2022-10-17T05:28:24.115Z,56.30
2022-10-17T05:30:50.727Z,56.30
2022-10-17T05:33:17.263Z,56.20
2022-10-17T05:35:43.821Z,56.20
2022-10-17T05:38:10.360Z,56.10
2022-10-17T05:40:38.450Z,56.10
2022-10-17T05:43:05.124Z,56.10
2022-10-17T05:45:31.726Z,56.00
2022-10-17T05:47:58.300Z,56.60
2022-10-17T05:50:25.201Z,56.00
2022-10-17T05:52:55.030Z,56.00
2022-10-17T05:55:22.155Z,56.00
2022-10-17T05:57:49.421Z,56.00
2022-10-17T06:00:16.039Z,56.00
2022-10-17T06:02:45.948Z,56.00
2022-10-17T06:05:13.197Z,55.90
2022-10-17T06:07:39.824Z,56.10
2022-10-17T06:10:06.640Z,56.10
2022-10-17T06:12:33.196Z,56.10
2022-10-17T06:14:59.759Z,56.20
2022-10-17T06:17:26.306Z,56.30
2022-10-17T06:19:52.852Z,56.40
2022-10-17T06:22:19.379Z,56.40
2022-10-17T06:24:46.156Z,56.00
2022-10-17T06:27:12.740Z,56.30
2022-10-17T06:29:39.574Z,56.80
2022-10-17T06:32:08.636Z,57.10
2022-10-17T06:34:37.801Z,56.80
2022-10-17T06:37:04.364Z,56.50
2022-10-17T06:39:33.792Z,56.50
2022-10-17T06:42:01.013Z,56.50
2022-10-17T06:44:31.471Z,56.40
2022-10-17T06:46:58.874Z,56.40
2022-10-17T06:49:25.445Z,56.30
2022-10-17T06:51:52.024Z,56.10
2022-10-17T06:54:18.600Z,56.00
2022-10-17T06:56:45.161Z,56.00
2022-10-17T06:59:11.789Z,55.90
2022-10-17T07:01:40.675Z,56.00
2022-10-17T07:04:09.731Z,56.20
2022-10-17T07:06:36.325Z,56.00
2022-10-17T07:09:03.261Z,56.00
2022-10-17T07:11:29.808Z,55.90
2022-10-17T07:13:56.346Z,55.90
2022-10-17T07:16:22.937Z,55.70
2022-10-17T07:18:50.439Z,55.70
2022-10-17T07:21:17.129Z,55.40
2022-10-17T07:23:43.661Z,55.70
2022-10-17T07:26:12.069Z,55.60
2022-10-17T07:28:39.901Z,55.30
2022-10-17T07:31:07.816Z,55.40
2022-10-17T07:33:34.609Z,55.20
2022-10-17T07:36:01.534Z,55.00
2022-10-17T07:38:28.400Z,55.00
2022-10-17T07:40:56.077Z,55.20
2022-10-17T07:43:23.650Z,55.00
2022-10-17T07:45:50.459Z,55.00
2022-10-17T07:48:17.041Z,54.90
2022-10-17T07:50:43.598Z,55.00
2022-10-17T07:53:10.225Z,55.10
2022-10-17T07:55:40.395Z,55.30
2022-10-17T07:58:07.339Z,55.30
2022-10-17T08:00:34.092Z,55.30
2022-10-17T08:03:00.780Z,55.40
2022-10-17T08:05:27.408Z,55.40
2022-10-17T08:07:54.352Z,55.30
2022-10-17T08:10:21.373Z,55.40
2022-10-17T08:12:47.969Z,55.60
2022-10-17T08:15:14.516Z,55.50
2022-10-17T08:17:41.071Z,55.50
2022-10-17T08:20:07.876Z,55.50
2022-10-17T08:22:35.149Z,56.40
2022-10-17T08:25:01.695Z,56.40
2022-10-17T08:27:28.828Z,56.50
2022-10-17T08:29:55.442Z,56.40
2022-10-17T08:32:24.789Z,56.30
2022-10-17T08:34:51.944Z,56.50
2022-10-17T08:37:18.486Z,56.30
2022-10-17T08:39:45.158Z,56.20
2022-10-17T08:42:17.800Z,56.20
2022-10-17T08:44:50.474Z,56.10
2022-10-17T08:47:21.244Z,56.00
2022-10-17T08:49:59.073Z,56.10
2022-10-17T08:52:44.757Z,56.00
2022-10-17T08:55:21.893Z,55.90
2022-10-17T08:57:48.669Z,56.00
2022-10-17T09:00:19.933Z,56.00
2022-10-17T09:03:14.505Z,55.90
2022-10-17T09:06:00.701Z,56.00
2022-10-17T09:08:42.487Z,56.10
2022-10-17T09:11:31.514Z,56.10
2022-10-17T09:14:33.786Z,56.10
2022-10-17T09:17:22.561Z,56.10
2022-10-17T09:20:18.339Z,56.10
2022-10-17T09:23:08.713Z,56.00
2022-10-17T09:25:47.657Z,56.10
2022-10-17T09:28:17.913Z,56.10
2022-10-17T09:30:56.128Z,56.10
2022-10-17T09:33:54.425Z,56.20
2022-10-17T09:36:24.414Z,56.20
2022-10-17T09:38:52.997Z,56.10
2022-10-17T09:41:47.223Z,56.30
2022-10-17T09:44:18.754Z,56.30
2022-10-17T09:47:02.847Z,56.20
2022-10-17T09:49:37.204Z,56.20
2022-10-17T09:52:05.990Z,56.20
2022-10-17T09:54:45.833Z,56.20
2022-10-17T09:57:13.113Z,56.30
2022-10-17T09:59:42.062Z,56.30
2022-10-17T10:02:22.178Z,56.30
2022-10-17T10:05:06.929Z,56.30
2022-10-17T10:07:36.141Z,56.30
2022-10-17T10:10:03.456Z,56.30
2022-10-17T10:12:35.738Z,56.40
2022-10-17T10:15:02.404Z,56.40
2022-10-17T10:17:39.085Z,56.40
2022-10-17T10:20:26.092Z,56.40
2022-10-17T10:23:11.162Z,56.50
2022-10-17T10:25:37.711Z,56.60
2022-10-17T10:28:09.908Z,56.60
2022-10-17T10:30:39.146Z,56.70
2022-10-17T10:33:10.217Z,56.80
2022-10-17T10:35:37.001Z,56.70
2022-10-17T10:38:08.591Z,56.80
2022-10-17T10:40:38.109Z,56.80
2022-10-17T10:43:05.765Z,56.70
2022-10-17T10:45:53.613Z,56.70
2022-10-17T10:48:28.047Z,56.60
2022-10-17T10:51:11.314Z,56.70
2022-10-17T10:53:59.785Z,56.70
2022-10-17T10:56:33.065Z,56.60
2022-10-17T10:59:08.618Z,56.60
2022-10-17T11:01:56.166Z,56.60
2022-10-17T11:04:42.250Z,56.60
2022-10-17T11:07:25.261Z,56.60
2022-10-17T11:10:11.973Z,56.60
2022-10-17T11:13:19.742Z,56.60
2022-10-17T11:15:49.521Z,56.50
2022-10-17T11:18:28.017Z,57.20
2022-10-17T11:21:03.049Z,56.80
2022-10-17T11:23:46.539Z,57.50
2022-10-17T11:26:25.956Z,56.80
2022-10-17T11:28:56.698Z,56.60
2022-10-17T11:31:37.348Z,56.90
2022-10-17T11:34:07.563Z,57.10
2022-10-17T11:36:39.518Z,57.40
2022-10-17T11:39:10.234Z,58.40
2022-10-17T11:41:51.916Z,58.30
2022-10-17T11:44:38.328Z,58.10
2022-10-17T11:47:10.907Z,58.30
2022-10-17T11:49:40.609Z,57.90
2022-10-17T11:52:55.332Z,57.60
2022-10-17T11:55:22.905Z,57.60
2022-10-17T11:57:54.925Z,57.60
2022-10-17T12:00:26.777Z,58.30
2022-10-17T12:03:02.098Z,58.10
2022-10-17T12:05:45.424Z,57.70
2022-10-17T12:08:20.864Z,57.40
2022-10-17T12:10:53.959Z,57.50
2022-10-17T12:13:30.133Z,57.50
2022-10-17T12:15:57.268Z,57.60
2022-10-17T12:18:25.398Z,57.70
2022-10-17T12:20:58.792Z,57.60
2022-10-17T12:23:29.105Z,57.60
2022-10-17T12:26:01.618Z,57.50
2022-10-17T12:28:37.353Z,57.50
2022-10-17T12:31:17.361Z,57.50
2022-10-17T12:33:50.424Z,57.40
2022-10-17T12:36:17.051Z,57.50
2022-10-17T12:38:47.839Z,57.50
2022-10-17T12:41:16.880Z,57.50
2022-10-17T12:43:44.935Z,57.60
2022-10-17T12:46:11.617Z,58.00
2022-10-17T12:48:38.213Z,57.40
2022-10-17T12:51:35.422Z,57.40
2022-10-17T12:54:08.958Z,57.50
2022-10-17T12:56:43.537Z,57.50
2022-10-17T12:59:18.069Z,57.40
2022-10-17T13:01:47.855Z,57.40
2022-10-17T13:04:14.572Z,57.50
2022-10-17T13:06:46.503Z,57.50
2022-10-17T13:09:23.012Z,57.60
2022-10-17T13:11:49.582Z,57.60
2022-10-17T13:14:17.025Z,57.60
2022-10-17T13:16:55.731Z,57.60
2022-10-17T13:19:24.522Z,57.60
2022-10-17T13:21:55.750Z,57.60
2022-10-17T13:24:35.852Z,57.60
2022-10-17T13:27:02.936Z,57.60
2022-10-17T13:29:30.757Z,57.60
2022-10-17T13:32:01.356Z,57.50
2022-10-17T13:34:28.301Z,57.50
2022-10-17T13:36:59.401Z,57.50
2022-10-17T13:39:52.489Z,57.60
2022-10-17T13:42:29.370Z,57.60
2022-10-17T13:44:56.633Z,57.60
2022-10-17T13:47:33.943Z,57.50
2022-10-17T13:50:00.519Z,57.40
2022-10-17T13:52:29.481Z,57.40
2022-10-17T13:55:06.167Z,57.40
2022-10-17T13:57:33.399Z,57.40
2022-10-17T14:00:09.930Z,57.20
2022-10-17T14:02:38.348Z,57.20
2022-10-17T14:05:17.299Z,57.30
2022-10-17T14:08:09.840Z,57.20
2022-10-17T14:10:33.597Z,57.40
2022-10-17T14:13:00.226Z,57.20
2022-10-17T14:15:31.364Z,58.40
2022-10-17T14:18:08.352Z,58.40
2022-10-17T14:23:42.376Z,57.90
2022-10-17T14:26:10.441Z,57.60
2022-10-17T14:28:37.059Z,57.60
2022-10-17T14:31:14.004Z,58.60
2022-10-17T14:33:44.872Z,58.20
2022-10-17T14:36:12.384Z,58.10
2022-10-17T14:38:38.967Z,58.10
2022-10-17T14:41:41.481Z,58.30
2022-10-17T14:43:59.814Z,58.40
2022-10-17T14:46:26.365Z,58.40
2022-10-17T14:48:54.839Z,58.50
2022-10-17T14:51:21.545Z,58.30
2022-10-17T14:54:04.932Z,57.90
2022-10-17T14:56:42.038Z,57.80
2022-10-17T14:59:13.731Z,57.90
2022-10-17T15:01:44.751Z,57.80
2022-10-17T15:04:11.297Z,57.80
2022-10-17T15:06:38.142Z,57.80
2022-10-17T15:09:05.033Z,57.70
2022-10-17T15:11:31.574Z,57.60
2022-10-17T15:13:58.160Z,57.60
2022-10-17T15:16:26.244Z,57.50
2022-10-17T15:18:53.109Z,57.40
2022-10-17T15:21:33.690Z,57.40
2022-10-17T15:24:04.718Z,57.30
2022-10-17T15:26:32.269Z,57.30
2022-10-17T15:28:58.919Z,57.30
2022-10-17T15:31:26.178Z,57.30
2022-10-17T15:33:52.846Z,57.30
2022-10-17T15:36:24.963Z,57.30
2022-10-17T15:38:53.412Z,57.30
2022-10-17T15:41:20.098Z,57.40
2022-10-17T15:43:47.994Z,57.40
2022-10-17T15:46:17.836Z,57.40
2022-10-17T15:48:44.453Z,57.40
2022-10-17T15:51:11.076Z,57.50
2022-10-17T15:53:37.645Z,57.40
2022-10-17T15:56:04.456Z,57.50
2022-10-17T15:58:35.947Z,57.50
2022-10-17T16:01:02.951Z,57.50
2022-10-17T16:03:30.233Z,57.50
2022-10-17T16:05:57.006Z,57.50
2022-10-17T16:08:23.630Z,57.40
2022-10-17T16:10:50.277Z,57.30
2022-10-17T16:13:24.273Z,57.30
2022-10-17T16:15:50.842Z,57.20
2022-10-17T16:18:17.419Z,57.20
2022-10-17T16:20:44.006Z,57.20
2022-10-17T16:23:11.922Z,57.20
2022-10-17T16:25:40.146Z,57.10
2022-10-17T16:28:08.182Z,57.10
2022-10-17T16:30:37.817Z,57.20
2022-10-17T16:33:04.380Z,57.10
2022-10-17T16:35:34.776Z,57.10
2022-10-17T16:38:05.724Z,57.10
2022-10-17T16:40:32.272Z,57.10
2022-10-17T16:42:58.807Z,57.10
2022-10-17T16:45:25.367Z,57.20
2022-10-17T16:47:53.016Z,57.20
2022-10-17T16:50:19.887Z,57.10
2022-10-17T16:52:46.424Z,57.20
2022-10-17T16:55:13.315Z,57.20
2022-10-17T16:57:39.903Z,57.10
2022-10-17T17:00:07.253Z,57.10
2022-10-17T17:02:34.129Z,57.20
2022-10-17T17:05:00.862Z,57.20
2022-10-17T17:07:29.359Z,57.20
2022-10-17T17:09:56.366Z,57.20
2022-10-17T17:12:22.997Z,57.20
2022-10-17T17:14:49.549Z,57.20
2022-10-17T17:17:24.643Z,57.90
2022-10-17T17:20:02.883Z,57.30
2022-10-17T17:22:29.422Z,57.30
2022-10-17T17:24:55.968Z,57.10
2022-10-17T17:27:24.966Z,57.20
2022-10-17T17:29:51.584Z,57.20
2022-10-17T17:32:18.133Z,57.20
2022-10-17T17:34:44.680Z,57.10
2022-10-17T17:37:11.284Z,57.10
2022-10-17T17:39:37.926Z,57.10
2022-10-17T17:42:04.456Z,58.50
2022-10-17T17:44:31.847Z,57.70
2022-10-17T17:46:58.379Z,58.60
2022-10-17T17:49:24.931Z,59.00
2022-10-17T17:51:51.545Z,59.00
2022-10-17T17:54:18.111Z,59.10
2022-10-17T17:56:44.658Z,59.00
2022-10-17T17:59:12.036Z,59.00
2022-10-17T18:01:39.124Z,58.90
2022-10-17T18:04:08.348Z,58.80
2022-10-17T18:06:35.640Z,58.80
2022-10-17T18:09:02.316Z,58.80
2022-10-17T18:11:29.143Z,58.80
2022-10-17T18:14:00.604Z,58.80
2022-10-17T18:16:27.979Z,58.80
2022-10-17T18:18:54.553Z,58.70
2022-10-17T18:21:21.100Z,58.80
2022-10-17T18:23:48.311Z,58.80
2022-10-17T18:26:15.156Z,58.80
2022-10-17T18:31:15.746Z,58.90
2022-10-17T18:33:44.454Z,59.00
2022-10-17T18:36:12.302Z,59.00
2022-10-17T18:38:38.978Z,59.10
2022-10-17T18:41:15.995Z,59.10
2022-10-17T18:43:43.741Z,59.30
2022-10-17T18:46:21.612Z,59.10
2022-10-17T18:48:48.617Z,59.00
2022-10-17T18:51:16.322Z,58.80
2022-10-17T18:53:47.892Z,58.80
2022-10-17T18:56:14.459Z,58.80
2022-10-17T18:58:41.161Z,58.80
2022-10-17T19:01:19.327Z,59.00
2022-10-17T19:03:46.717Z,58.90
2022-10-17T19:06:14.452Z,59.00
2022-10-17T19:08:41.650Z,59.00
2022-10-17T19:11:09.889Z,59.10
2022-10-17T19:13:36.633Z,59.00
2022-10-17T19:16:07.328Z,59.10
2022-10-17T19:18:34.425Z,59.10
2022-10-17T19:21:02.552Z,59.10
2022-10-17T19:23:30.420Z,59.10
2022-10-17T19:26:07.754Z,59.10
2022-10-17T19:28:34.563Z,59.20
2022-10-17T19:31:01.191Z,59.10
2022-10-17T19:35:56.732Z,59.00
2022-10-17T19:38:23.282Z,59.00
2022-10-17T19:40:49.924Z,58.90
2022-10-17T19:43:16.502Z,58.90
2022-10-17T19:45:43.052Z,59.10
2022-10-17T19:48:09.601Z,59.00
2022-10-17T19:50:39.126Z,58.80
2022-10-17T19:53:08.001Z,58.70
2022-10-17T19:55:34.692Z,58.70
2022-10-17T19:58:02.600Z,58.80
2022-10-17T20:00:29.202Z,58.80
2022-10-17T20:02:55.782Z,58.80
2022-10-17T20:05:25.906Z,58.90
2022-10-17T20:07:53.887Z,58.90
2022-10-17T20:10:20.509Z,59.40
2022-10-17T20:12:47.039Z,59.20
2022-10-17T20:15:13.598Z,59.10
2022-10-17T20:17:40.143Z,59.10
2022-10-17T20:20:08.745Z,59.00
2022-10-17T20:22:35.584Z,59.00
2022-10-17T20:25:02.128Z,59.70
2022-10-17T20:27:28.686Z,59.80
2022-10-17T20:29:55.261Z,59.20
2022-10-17T20:32:21.801Z,59.10
2022-10-17T20:34:48.358Z,59.10
2022-10-17T20:37:14.896Z,59.10
2022-10-17T20:39:42.261Z,59.10
2022-10-17T20:42:08.797Z,59.10
2022-10-17T20:44:35.395Z,59.10
2022-10-17T20:47:02.840Z,59.00
2022-10-17T20:49:29.869Z,59.10
2022-10-17T20:51:56.477Z,59.10
2022-10-17T20:54:23.076Z,59.10
2022-10-17T20:56:49.677Z,59.20
2022-10-17T20:59:16.999Z,59.30
2022-10-17T21:01:43.678Z,59.30
2022-10-17T21:04:40.657Z,59.30
2022-10-17T21:06:56.900Z,59.40
2022-10-17T21:09:23.468Z,59.70
2022-10-17T21:11:54.818Z,59.70
2022-10-17T21:14:21.742Z,59.80
2022-10-17T21:16:48.318Z,59.80
2022-10-17T21:19:15.267Z,59.90
2022-10-17T21:21:43.608Z,59.90
2022-10-17T21:24:16.707Z,60.00
2022-10-17T21:26:43.720Z,59.90
2022-10-17T21:29:11.565Z,59.90
2022-10-17T21:31:39.660Z,59.90
2022-10-17T21:34:13.750Z,60.00
2022-10-17T21:36:40.385Z,59.90
2022-10-17T21:41:34.585Z,59.90
2022-10-17T21:44:05.771Z,59.90
2022-10-17T21:46:32.385Z,59.90
2022-10-17T21:48:59.595Z,59.80
2022-10-17T21:51:26.290Z,59.60
2022-10-17T21:53:53.735Z,59.60
2022-10-17T21:56:22.813Z,59.60
2022-10-17T21:58:49.925Z,59.60
2022-10-17T22:01:19.859Z,59.50
2022-10-17T22:03:48.175Z,59.60
2022-10-17T22:06:38.634Z,59.60
2022-10-17T22:09:03.122Z,59.60
2022-10-17T22:11:30.812Z,59.60
2022-10-17T22:13:59.493Z,59.70
2022-10-17T22:16:26.193Z,59.60
2022-10-17T22:18:55.602Z,59.70
2022-10-17T22:21:22.226Z,59.70
2022-10-17T22:23:57.130Z,59.80
2022-10-17T22:26:23.690Z,59.80
2022-10-17T22:28:50.381Z,59.80
2022-10-17T22:31:17.032Z,59.90
2022-10-17T22:33:43.631Z,59.80
2022-10-17T22:36:10.311Z,59.80
2022-10-17T22:38:36.888Z,59.70
2022-10-17T22:41:03.551Z,59.60
2022-10-17T22:43:30.110Z,59.70
2022-10-17T22:45:59.217Z,60.30
2022-10-17T22:48:26.122Z,59.60
2022-10-17T22:50:52.767Z,59.60
2022-10-17T22:53:24.122Z,59.50
2022-10-17T22:55:56.370Z,59.50
2022-10-17T22:58:23.056Z,59.50
2022-10-17T23:00:50.166Z,59.40
2022-10-17T23:03:16.796Z,59.50
2022-10-17T23:05:43.537Z,59.40
2022-10-17T23:08:10.297Z,59.40
2022-10-17T23:10:36.855Z,59.40
2022-10-17T23:13:03.568Z,59.50
2022-10-17T23:15:31.601Z,59.40
2022-10-17T23:17:58.624Z,59.40
2022-10-17T23:20:25.204Z,59.40
2022-10-17T23:22:51.766Z,59.40
2022-10-17T23:25:18.332Z,59.40
2022-10-17T23:27:44.894Z,59.40
2022-10-17T23:30:11.773Z,59.30
2022-10-17T23:32:39.301Z,59.40
2022-10-17T23:35:06.310Z,59.30
2022-10-17T23:37:33.042Z,59.30
2022-10-17T23:39:59.766Z,59.30
2022-10-17T23:42:26.317Z,59.30
2022-10-17T23:44:52.948Z,59.20
2022-10-17T23:47:19.511Z,59.20
2022-10-17T23:49:46.080Z,59.10
2022-10-17T23:52:12.626Z,59.10
2022-10-17T23:54:39.174Z,59.10
2022-10-17T23:57:05.735Z,59.10
2022-10-17T23:59:32.280Z,59.10
